Time;durP1;ratioP1;P1;durP2;ratioP2;P2;SDS_P1;SDS_P2;PMS_P1;PMS_P2;Temp;Humidity;BMP_temperature;BMP_pressure;BME280_temperature;BME280_humidity;BME280_pressure;Samples;Min_cycle;Max_cycle;Signal;HPM_P1;HPM_P2
2022/08/10 00:04:38;;;;;;;5.45;3.33;;;;;;;;;;8486936;27;20504;-86
2022/08/10 00:08:41;;;;;;;5.65;3.45;;;;;;;;;;8474420;27;20441;-85
2022/08/10 00:12:46;;;;;;;8.35;3.65;;;;;;;;;;8488186;27;20039;-86
2022/08/10 00:16:49;;;;;;;4.90;3.30;;;;;;;;;;8480092;27;20039;-84
2022/08/10 00:20:52;;;;;;;6.20;3.83;;;;;;;;;;8476112;27;20134;-84
2022/08/10 00:24:56;;;;;;;5.85;3.55;;;;;;;;;;8480913;27;20080;-84
2022/08/10 00:29:01;;;;;;;4.80;3.33;;;;;;;;;;8469286;27;20059;-84
2022/08/10 00:33:04;;;;;;;8.60;4.07;;;;;;;;;;8471815;27;20050;-84
2022/08/10 00:37:07;;;;;;;6.03;3.40;;;;;;;;;;8481700;27;20100;-84
2022/08/10 00:41:09;;;;;;;7.38;3.58;;;;;;;;;;8480641;27;20044;-84
2022/08/10 00:45:14;;;;;;;4.40;2.90;;;;;;;;;;8473698;27;20046;-84
2022/08/10 00:49:16;;;;;;;5.38;3.50;;;;;;;;;;8466022;27;20097;-84
2022/08/10 00:53:19;;;;;;;4.90;3.17;;;;;;;;;;8455458;27;20135;-89
2022/08/10 00:57:22;;;;;;;5.95;3.40;;;;;;;;;;8446118;27;20047;-83
2022/08/10 01:01:26;;;;;;;5.70;3.60;;;;;;;;;;8446813;27;20043;-82
2022/08/10 01:05:28;;;;;;;6.18;3.22;;;;;;;;;;8456540;27;20479;-83
2022/08/10 01:09:38;;;;;;;8.07;3.92;;;;;;;;;;8459270;27;20055;-82
2022/08/10 01:13:49;;;;;;;6.13;3.63;;;;;;;;;;8455965;27;20040;-84
2022/08/10 01:18:00;;;;;;;4.80;3.30;;;;;;;;;;8462905;27;20089;-86
2022/08/10 01:22:23;;;;;;;5.53;3.83;;;;;;;;;;8464032;27;20048;-87
2022/08/10 01:26:40;;;;;;;5.15;3.30;;;;;;;;;;8449970;27;20304;-82
2022/08/10 01:30:47;;;;;;;6.07;3.85;;;;;;;;;;8448641;27;20063;-84
2022/08/10 01:34:55;;;;;;;4.47;3.10;;;;;;;;;;8459537;27;20071;-89
2022/08/10 01:39:00;;;;;;;8.02;3.90;;;;;;;;;;8456438;27;20036;-84
2022/08/10 01:43:06;;;;;;;6.60;3.63;;;;;;;;;;8473480;27;20133;-83
2022/08/10 01:51:37;;;;;;;5.55;3.25;;;;;;;;;;8467680;27;20047;-82
2022/08/10 01:55:41;;;;;;;5.35;3.30;;;;;;;;;;8468213;27;20048;-83
2022/08/10 01:59:46;;;;;;;7.40;5.93;;;;;;;;;;8456689;27;20050;-82
2022/08/10 02:03:52;;;;;;;7.00;4.72;;;;;;;;;;8459907;27;20040;-82
2022/08/10 02:07:57;;;;;;;5.22;3.30;;;;;;;;;;8461070;27;20104;-82
2022/08/10 02:12:05;;;;;;;9.35;3.67;;;;;;;;;;8461755;27;20040;-83
2022/08/10 02:16:10;;;;;;;8.85;3.42;;;;;;;;;;8461239;27;20050;-83
2022/08/10 02:20:17;;;;;;;4.63;3.15;;;;;;;;;;8461052;27;20043;-87
2022/08/10 02:24:21;;;;;;;6.72;3.40;;;;;;;;;;8455461;27;20104;-85
2022/08/10 02:28:26;;;;;;;8.35;4.10;;;;;;;;;;8438797;27;20126;-83
2022/08/10 02:32:30;;;;;;;5.50;3.65;;;;;;;;;;8460203;27;20051;-83
2022/08/10 02:36:36;;;;;;;7.80;3.92;;;;;;;;;;8461071;27;20090;-87
2022/08/10 02:40:45;;;;;;;8.13;3.78;;;;;;;;;;8453229;28;20097;-82
2022/08/10 02:44:53;;;;;;;8.07;4.50;;;;;;;;;;8462250;27;20047;-85
2022/08/10 02:49:02;;;;;;;15.15;7.72;;;;;;;;;;8446167;27;20085;-84
2022/08/10 02:53:11;;;;;;;10.40;5.82;;;;;;;;;;8470416;27;20044;-84
2022/08/10 02:57:19;;;;;;;9.77;6.03;;;;;;;;;;8482691;27;20051;-83
2022/08/10 03:01:26;;;;;;;9.20;6.05;;;;;;;;;;8434139;28;20043;-84
2022/08/10 03:05:31;;;;;;;7.32;4.95;;;;;;;;;;8461440;28;20074;-89
2022/08/10 03:09:41;;;;;;;7.57;5.22;;;;;;;;;;8464416;28;20467;-84
2022/08/10 03:13:46;;;;;;;7.00;4.82;;;;;;;;;;8479981;28;20050;-84
2022/08/10 03:17:53;;;;;;;5.57;3.88;;;;;;;;;;8473904;28;20408;-83
2022/08/10 03:21:57;;;;;;;5.70;3.10;;;;;;;;;;8473370;28;20043;-82
2022/08/10 03:26:01;;;;;;;4.63;3.25;;;;;;;;;;8467080;28;20448;-86
2022/08/10 03:30:05;;;;;;;6.15;3.42;;;;;;;;;;8470602;28;20039;-82
2022/08/10 03:34:08;;;;;;;6.13;3.78;;;;;;;;;;8478418;28;20482;-83
2022/08/10 03:38:10;;;;;;;7.78;3.78;;;;;;;;;;8471594;28;20191;-82
2022/08/10 03:42:16;;;;;;;7.57;3.88;;;;;;;;;;8490505;27;20129;-83
2022/08/10 03:46:24;;;;;;;5.22;2.88;;;;;;;;;;8489245;27;20047;-83
2022/08/10 03:50:27;;;;;;;8.93;4.53;;;;;;;;;;8475903;27;20489;-82
2022/08/10 03:54:30;;;;;;;7.95;4.38;;;;;;;;;;8486412;27;20448;-82
2022/08/10 03:58:34;;;;;;;10.48;5.10;;;;;;;;;;8488467;27;20118;-83
2022/08/10 04:02:37;;;;;;;13.20;6.28;;;;;;;;;;8482606;27;20512;-82
2022/08/10 04:06:40;;;;;;;8.80;4.95;;;;;;;;;;8481295;27;20064;-83
2022/08/10 04:10:43;;;;;;;9.20;5.63;;;;;;;;;;8476509;27;20043;-82
2022/08/10 04:14:47;;;;;;;10.25;4.80;;;;;;;;;;8479509;27;20124;-87
2022/08/10 04:18:50;;;;;;;6.97;5.00;;;;;;;;;;8471181;27;20395;-82
2022/08/10 04:22:53;;;;;;;8.02;5.15;;;;;;;;;;8466182;27;20039;-82
2022/08/10 04:26:56;;;;;;;7.25;4.53;;;;;;;;;;8468935;27;20050;-82
2022/08/10 04:31:03;;;;;;;9.70;4.85;;;;;;;;;;8485331;27;20047;-83
2022/08/10 04:35:09;;;;;;;6.35;4.22;;;;;;;;;;8478889;27;20046;-83
2022/08/10 04:39:12;;;;;;;8.43;4.85;;;;;;;;;;8482410;27;20051;-83
2022/08/10 04:43:15;;;;;;;11.80;6.43;;;;;;;;;;8487039;27;20040;-83
2022/08/10 04:47:19;;;;;;;12.55;7.13;;;;;;;;;;8479709;27;20489;-83
2022/08/10 04:51:22;;;;;;;12.65;5.82;;;;;;;;;;8473654;27;20531;-86
2022/08/10 04:55:25;;;;;;;12.93;6.28;;;;;;;;;;8483164;27;20432;-83
2022/08/10 04:59:27;;;;;;;10.00;7.20;;;;;;;;;;8491232;27;20051;-82
2022/08/10 05:03:31;;;;;;;12.40;8.77;;;;;;;;;;8489547;27;20126;-86
2022/08/10 05:07:34;;;;;;;15.55;7.93;;;;;;;;;;8466191;27;20450;-83
2022/08/10 05:11:37;;;;;;;11.85;9.18;;;;;;;;;;8492356;27;20076;-82
2022/08/10 05:15:42;;;;;;;15.73;12.35;;;;;;;;;;8476744;27;20076;-82
2022/08/10 05:19:47;;;;;;;16.15;13.23;;;;;;;;;;8467230;27;20040;-82
2022/08/10 05:23:50;;;;;;;16.85;13.45;;;;;;;;;;8483044;27;20138;-87
2022/08/10 05:27:53;;;;;;;16.02;11.27;;;;;;;;;;8480890;27;20479;-89
2022/08/10 05:32:00;;;;;;;12.90;10.00;;;;;;;;;;8488743;27;20043;-87
2022/08/10 05:36:06;;;;;;;13.80;11.38;;;;;;;;;;8479668;27;20059;-84
2022/08/10 05:40:10;;;;;;;14.00;9.85;;;;;;;;;;8482977;27;20490;-89
2022/08/10 05:44:13;;;;;;;17.10;10.57;;;;;;;;;;8481767;27;20047;-82
2022/08/10 05:48:17;;;;;;;12.63;9.65;;;;;;;;;;8487587;27;20043;-82
2022/08/10 05:52:22;;;;;;;8.90;6.63;;;;;;;;;;8470649;27;20432;-82
2022/08/10 05:56:26;;;;;;;9.77;7.43;;;;;;;;;;8474083;27;20529;-82
2022/08/10 06:00:34;;;;;;;23.15;9.70;;;;;;;;;;8459787;27;20394;-83
2022/08/10 06:04:44;;;;;;;10.88;7.53;;;;;;;;;;8478768;27;20519;-83
2022/08/10 06:08:58;;;;;;;11.05;6.55;;;;;;;;;;8466802;27;20160;-83
2022/08/10 06:17:25;;;;;;;9.30;5.10;;;;;;;;;;8466484;27;20036;-83
2022/08/10 06:21:28;;;;;;;11.07;4.72;;;;;;;;;;8470866;27;20039;-82
2022/08/10 06:25:33;;;;;;;9.70;4.82;;;;;;;;;;8462196;27;20118;-83
2022/08/10 06:29:41;;;;;;;6.93;4.22;;;;;;;;;;8480448;27;20453;-83
2022/08/10 06:33:46;;;;;;;7.75;4.35;;;;;;;;;;8477614;27;20479;-82
2022/08/10 06:37:51;;;;;;;8.82;4.50;;;;;;;;;;8468308;27;20123;-82
2022/08/10 06:42:00;;;;;;;7.03;4.85;;;;;;;;;;8475046;27;20059;-83
2022/08/10 06:46:12;;;;;;;7.93;3.78;;;;;;;;;;8458675;27;20870;-83
2022/08/10 06:50:20;;;;;;;5.47;3.67;;;;;;;;;;8468819;27;20118;-81
2022/08/10 06:54:26;;;;;;;5.88;3.40;;;;;;;;;;8469508;27;20486;-83
2022/08/10 06:58:37;;;;;;;5.30;3.22;;;;;;;;;;8458591;28;20130;-82
2022/08/10 07:02:59;;;;;;;4.35;2.63;;;;;;;;;;8466173;28;20048;-82
2022/08/10 07:07:05;;;;;;;4.03;2.50;;;;;;;;;;8466803;28;20089;-82
2022/08/10 07:11:10;;;;;;;4.97;3.08;;;;;;;;;;8461334;28;20040;-82
2022/08/10 07:15:17;;;;;;;3.97;2.45;;;;;;;;;;8476447;27;20055;-82
2022/08/10 07:19:21;;;;;;;4.45;2.58;;;;;;;;;;8461989;27;20092;-84
2022/08/10 07:23:26;;;;;;;3.00;2.30;;;;;;;;;;8463269;27;20044;-83
2022/08/10 07:27:35;;;;;;;5.50;2.45;;;;;;;;;;8464164;27;20043;-82
2022/08/10 07:31:55;;;;;;;4.60;2.25;;;;;;;;;;8468183;27;20080;-82
2022/08/10 07:36:05;;;;;;;3.50;2.22;;;;;;;;;;8464023;27;20054;-83
2022/08/10 07:40:13;;;;;;;4.72;2.38;;;;;;;;;;8473317;27;20039;-82
2022/08/10 07:44:29;;;;;;;3.90;2.10;;;;;;;;;;8465081;27;20044;-82
2022/08/10 07:48:37;;;;;;;5.65;2.53;;;;;;;;;;8460352;27;20065;-82
2022/08/10 07:52:43;;;;;;;2.83;2.03;;;;;;;;;;8461846;27;20464;-82
2022/08/10 07:56:49;;;;;;;2.55;2.00;;;;;;;;;;8462162;27;20487;-82
2022/08/10 08:00:54;;;;;;;4.50;2.35;;;;;;;;;;8467887;27;20181;-82
2022/08/10 08:05:00;;;;;;;4.30;2.35;;;;;;;;;;8464557;27;20043;-82
2022/08/10 08:09:06;;;;;;;3.95;1.65;;;;;;;;;;8462838;27;20411;-82
2022/08/10 08:13:09;;;;;;;3.80;1.70;;;;;;;;;;8467563;27;20108;-82
2022/08/10 08:17:18;;;;;;;4.32;2.22;;;;;;;;;;8471826;27;20769;-82
2022/08/10 08:21:24;;;;;;;3.13;2.00;;;;;;;;;;8456729;27;20074;-82
2022/08/10 08:25:29;;;;;;;5.35;2.20;;;;;;;;;;8468215;27;20046;-81
2022/08/10 08:29:37;;;;;;;5.28;1.90;;;;;;;;;;8467842;27;20043;-82
2022/08/10 08:33:41;;;;;;;4.07;2.08;;;;;;;;;;8461706;27;20044;-82
2022/08/10 08:37:48;;;;;;;3.08;1.98;;;;;;;;;;8471513;27;20146;-81
2022/08/10 08:42:15;;;;;;;4.30;2.00;;;;;;;;;;8464490;27;20126;-82
2022/08/10 08:51:50;;;;;;;3.80;2.35;;;;;;;;;;8457407;27;20097;-81
2022/08/10 08:56:23;;;;;;;4.38;2.30;;;;;;;;;;8474964;27;20818;-81
2022/08/10 09:00:40;;;;;;;4.55;2.25;;;;;;;;;;8455950;27;20074;-81
2022/08/10 09:04:59;;;;;;;3.55;2.15;;;;;;;;;;8456644;27;20116;-82
2022/08/10 09:09:28;;;;;;;4.07;2.03;;;;;;;;;;8465709;27;20043;-81
2022/08/10 09:13:40;;;;;;;2.33;1.80;;;;;;;;;;8461484;27;20048;-80
2022/08/10 09:17:53;;;;;;;4.68;1.90;;;;;;;;;;8462430;27;20039;-81
2022/08/10 09:22:11;;;;;;;3.45;1.90;;;;;;;;;;8463356;27;20138;-81
2022/08/10 09:26:20;;;;;;;2.47;2.00;;;;;;;;;;8456736;27;20063;-83
2022/08/10 09:30:41;;;;;;;3.25;1.90;;;;;;;;;;8466526;27;20044;-83
2022/08/10 09:34:56;;;;;;;2.55;1.80;;;;;;;;;;8454980;27;20050;-82
2022/08/10 09:39:10;;;;;;;3.95;1.80;;;;;;;;;;8449484;27;20067;-81
2022/08/10 09:43:36;;;;;;;3.92;2.03;;;;;;;;;;8455807;27;20047;-81
2022/08/10 09:47:56;;;;;;;3.33;1.70;;;;;;;;;;8453118;27;20047;-83
2022/08/10 09:52:14;;;;;;;5.18;2.13;;;;;;;;;;8457127;27;20035;-82
2022/08/10 09:56:32;;;;;;;3.95;1.70;;;;;;;;;;8456763;27;20066;-82
2022/08/10 10:00:41;;;;;;;2.15;1.90;;;;;;;;;;8461391;27;20050;-82
2022/08/10 10:04:53;;;;;;;2.40;1.77;;;;;;;;;;8453750;27;20050;-82
2022/08/10 10:09:13;;;;;;;3.10;2.10;;;;;;;;;;8455312;27;20154;-82
2022/08/10 10:13:26;;;;;;;2.97;1.90;;;;;;;;;;8455239;27;20043;-83
2022/08/10 10:17:46;;;;;;;3.53;1.90;;;;;;;;;;8451470;28;20467;-82
2022/08/10 10:22:08;;;;;;;3.13;1.90;;;;;;;;;;8460759;27;20056;-82
2022/08/10 10:26:23;;;;;;;3.30;1.58;;;;;;;;;;8453191;27;20116;-81
2022/08/10 10:30:39;;;;;;;3.28;1.80;;;;;;;;;;8463378;27;20075;-81
2022/08/10 10:34:55;;;;;;;3.40;2.00;;;;;;;;;;8450286;27;20544;-79
2022/08/10 10:39:18;;;;;;;5.70;2.08;;;;;;;;;;8451635;27;20047;-82
2022/08/10 10:43:47;;;;;;;4.80;2.17;;;;;;;;;;8450114;27;20042;-81
2022/08/10 10:48:07;;;;;;;2.35;1.83;;;;;;;;;;8454865;28;20039;-80
2022/08/10 10:52:40;;;;;;;7.28;2.20;;;;;;;;;;8456404;27;20046;-81
2022/08/10 10:57:16;;;;;;;4.40;2.03;;;;;;;;;;8459798;27;20071;-81
2022/08/10 11:01:38;;;;;;;2.70;1.90;;;;;;;;;;8465945;28;20039;-81
2022/08/10 11:05:57;;;;;;;3.28;1.90;;;;;;;;;;8453588;28;20059;-80
2022/08/10 11:10:08;;;;;;;4.43;1.63;;;;;;;;;;8447967;28;20055;-80
2022/08/10 11:14:27;;;;;;;2.88;1.73;;;;;;;;;;8457927;28;20552;-81
2022/08/10 11:18:48;;;;;;;1.92;1.60;;;;;;;;;;8454548;28;20039;-81
2022/08/10 11:23:04;;;;;;;4.47;1.60;;;;;;;;;;8461470;28;20119;-81
2022/08/10 11:27:17;;;;;;;2.03;1.65;;;;;;;;;;8458548;28;20043;-80
2022/08/10 11:31:34;;;;;;;2.53;1.70;;;;;;;;;;8464960;28;20441;-81
2022/08/10 11:35:46;;;;;;;4.43;1.88;;;;;;;;;;8451721;28;20101;-80
2022/08/10 11:40:02;;;;;;;4.38;1.90;;;;;;;;;;8462556;28;20043;-81
2022/08/10 11:44:23;;;;;;;5.22;1.90;;;;;;;;;;8451189;28;20057;-80
2022/08/10 11:48:40;;;;;;;3.10;2.13;;;;;;;;;;8452973;28;20399;-80
2022/08/10 11:52:53;;;;;;;3.10;1.85;;;;;;;;;;8458538;28;20475;-80
2022/08/10 11:57:07;;;;;;;5.00;1.88;;;;;;;;;;8456912;28;20067;-80
2022/08/10 12:01:16;;;;;;;3.58;1.80;;;;;;;;;;8467393;27;20039;-81
2022/08/10 12:05:35;;;;;;;2.08;1.58;;;;;;;;;;8470059;27;20487;-81
2022/08/10 12:10:09;;;;;;;2.80;1.75;;;;;;;;;;8460915;27;20130;-80
2022/08/10 12:14:24;;;;;;;;;;;;;;;;;;8460029;27;20052;-81
2022/08/10 12:18:44;;;;;;;2.65;1.52;;;;;;;;;;8464448;27;20379;-80
2022/08/10 12:22:58;;;;;;;2.50;1.60;;;;;;;;;;8486619;27;20376;-80
2022/08/10 12:27:10;;;;;;;3.42;1.70;;;;;;;;;;8491843;27;20505;-80
2022/08/10 12:31:16;;;;;;;1.70;1.40;;;;;;;;;;8469059;27;20050;-80
2022/08/10 12:35:25;;;;;;;2.97;2.00;;;;;;;;;;8467713;27;20039;-81
2022/08/10 12:39:34;;;;;;;2.05;1.58;;;;;;;;;;8448923;27;20540;-81
2022/08/10 12:43:51;;;;;;;3.25;1.60;;;;;;;;;;8455444;27;20510;-81
2022/08/10 12:48:04;;;;;;;2.40;1.60;;;;;;;;;;8454351;28;20039;-81
2022/08/10 12:52:17;;;;;;;3.05;1.83;;;;;;;;;;8460764;27;20058;-80
2022/08/10 13:01:37;;;;;;;2.60;1.70;;;;;;;;;;8451436;27;20051;-81
2022/08/10 13:05:42;;;;;;;2.55;1.88;;;;;;;;;;8458905;27;20079;-82
2022/08/10 13:09:46;;;;;;;2.65;1.50;;;;;;;;;;8455916;27;20116;-81
2022/08/10 13:13:54;;;;;;;3.15;1.55;;;;;;;;;;8470498;27;20046;-81
2022/08/10 13:18:02;;;;;;;2.72;1.50;;;;;;;;;;8471949;27;20103;-82
2022/08/10 13:22:40;;;;;;;3.88;1.80;;;;;;;;;;8453685;27;20036;-81
2022/08/10 13:26:51;;;;;;;3.25;1.50;;;;;;;;;;8458804;28;20067;-81
2022/08/10 13:31:12;;;;;;;2.72;1.48;;;;;;;;;;8456412;27;20050;-81
2022/08/10 13:35:17;;;;;;;2.35;1.80;;;;;;;;;;8458419;27;20039;-81
2022/08/10 13:39:35;;;;;;;4.03;1.70;;;;;;;;;;8454321;27;20067;-82
2022/08/10 13:43:54;;;;;;;6.28;1.73;;;;;;;;;;8453348;28;20494;-83
2022/08/10 13:48:22;;;;;;;2.22;1.50;;;;;;;;;;8450675;27;20487;-82
2022/08/10 13:52:28;;;;;;;2.33;1.60;;;;;;;;;;8466512;27;20067;-80
2022/08/10 13:56:34;;;;;;;1.88;1.48;;;;;;;;;;8475904;27;20541;-80
2022/08/10 14:00:39;;;;;;;2.30;1.60;;;;;;;;;;8465852;27;20045;-80
2022/08/10 14:04:47;;;;;;;3.53;1.80;;;;;;;;;;8470009;27;20051;-81
2022/08/10 14:09:00;;;;;;;2.67;1.85;;;;;;;;;;8462538;27;20128;-81
2022/08/10 14:13:08;;;;;;;2.85;1.40;;;;;;;;;;8467994;27;20134;-81
2022/08/10 14:17:14;;;;;;;6.05;1.77;;;;;;;;;;8458045;27;20408;-79
2022/08/10 14:21:19;;;;;;;2.00;1.30;;;;;;;;;;8459289;27;20043;-80
2022/08/10 14:25:22;;;;;;;4.63;1.50;;;;;;;;;;8467551;27;20047;-80
2022/08/10 14:29:29;;;;;;;2.08;1.70;;;;;;;;;;8464519;27;20071;-80
2022/08/10 14:33:35;;;;;;;3.00;1.52;;;;;;;;;;8461948;27;20411;-80
2022/08/10 14:37:47;;;;;;;2.72;1.45;;;;;;;;;;8469018;27;20040;-81
2022/08/10 14:41:54;;;;;;;2.28;1.80;;;;;;;;;;8455791;27;20101;-80
2022/08/10 14:45:59;;;;;;;3.15;1.70;;;;;;;;;;8463552;27;20040;-79
2022/08/10 14:50:05;;;;;;;2.42;1.58;;;;;;;;;;8480714;27;20066;-82
2022/08/10 14:54:19;;;;;;;2.60;1.60;;;;;;;;;;8465759;27;20062;-81
2022/08/10 14:58:25;;;;;;;2.90;1.85;;;;;;;;;;8467216;27;20085;-80
2022/08/10 15:02:29;;;;;;;3.03;1.85;;;;;;;;;;8462466;28;20491;-80
2022/08/10 15:06:39;;;;;;;3.20;1.60;;;;;;;;;;8461783;28;20135;-80
2022/08/10 15:10:54;;;;;;;3.45;1.60;;;;;;;;;;8462717;28;20036;-80
2022/08/10 15:15:02;;;;;;;2.95;1.83;;;;;;;;;;8465736;27;20518;-80
2022/08/10 15:19:12;;;;;;;3.03;1.90;;;;;;;;;;8491409;27;20626;-80
2022/08/10 15:23:17;;;;;;;3.25;1.63;;;;;;;;;;8464460;28;20391;-80
2022/08/10 15:27:24;;;;;;;2.13;1.38;;;;;;;;;;8466252;28;20483;-80
2022/08/10 15:31:31;;;;;;;3.65;1.60;;;;;;;;;;8475750;28;20046;-80
2022/08/10 15:40:01;;;;;;;2.80;1.63;;;;;;;;;;8499615;27;20043;-80
2022/08/10 15:44:07;;;;;;;2.25;1.52;;;;;;;;;;8496538;27;20043;-80
2022/08/10 15:48:14;;;;;;;2.15;1.60;;;;;;;;;;8475016;27;20154;-80
2022/08/10 15:52:22;;;;;;;2.92;1.92;;;;;;;;;;8487098;27;20050;-81
2022/08/10 15:56:31;;;;;;;3.08;1.98;;;;;;;;;;8476820;27;20039;-81
2022/08/10 16:00:43;;;;;;;2.38;1.70;;;;;;;;;;8468550;27;20108;-84
2022/08/10 16:04:48;;;;;;;;;;;;;;;;;;8462946;27;20123;-78
2022/08/10 16:08:53;;;;;;;1.45;1.35;;;;;;;;;;8462389;27;19930;-79
2022/08/10 16:13:01;;;;;;;2.63;1.60;;;;;;;;;;8473656;27;20040;-78
2022/08/10 16:17:11;;;;;;;3.80;1.85;;;;;;;;;;8473274;27;20047;-83
2022/08/10 16:21:18;;;;;;;2.10;1.50;;;;;;;;;;8486409;27;20458;-78
2022/08/10 16:25:21;;;;;;;3.40;1.90;;;;;;;;;;8492727;27;20047;-78
2022/08/10 16:29:27;;;;;;;3.42;1.70;;;;;;;;;;8477876;27;20043;-78
2022/08/10 16:33:35;;;;;;;3.10;1.80;;;;;;;;;;8492043;27;20099;-79
2022/08/10 16:37:41;;;;;;;3.78;1.70;;;;;;;;;;8448860;27;20130;-85
2022/08/10 16:41:47;;;;;;;3.50;1.75;;;;;;;;;;8447257;27;20043;-80
2022/08/10 16:45:53;;;;;;;3.05;1.70;;;;;;;;;;8442418;27;20516;-79
2022/08/10 16:50:04;;;;;;;2.80;1.70;;;;;;;;;;8455065;27;20044;-80
2022/08/10 16:54:09;;;;;;;2.43;1.67;;;;;;;;;;8456840;27;20043;-85
2022/08/10 16:58:15;;;;;;;2.83;1.65;;;;;;;;;;8452606;27;20051;-81
2022/08/10 17:02:22;;;;;;;4.82;1.90;;;;;;;;;;8457347;27;20529;-83
2022/08/10 17:06:32;;;;;;;2.17;1.60;;;;;;;;;;8455598;27;20043;-82
2022/08/10 17:10:43;;;;;;;3.42;1.77;;;;;;;;;;8384956;28;20047;-86
2022/08/10 17:14:52;;;;;;;4.30;1.83;;;;;;;;;;8393553;28;20122;-86
2022/08/10 17:19:36;;;;;;;2.22;1.60;;;;;;;;;;8382641;28;20412;-79
2022/08/10 17:24:15;;;;;;;5.57;2.80;;;;;;;;;;8382462;28;20408;-78
2022/08/10 17:28:27;;;;;;;3.78;2.53;;;;;;;;;;8392689;28;20055;-84
2022/08/10 17:32:34;;;;;;;6.50;3.05;;;;;;;;;;8389305;28;20044;-79
2022/08/10 17:36:38;;;;;;;5.78;3.13;;;;;;;;;;8387730;28;20443;-80
2022/08/10 17:40:49;;;;;;;5.80;2.50;;;;;;;;;;8388067;28;20052;-77
2022/08/10 17:44:55;;;;;;;6.03;2.75;;;;;;;;;;8388240;28;20110;-77
2022/08/10 17:48:59;;;;;;;6.72;3.28;;;;;;;;;;8392452;28;20087;-77
2022/08/10 17:53:05;;;;;;;5.93;2.95;;;;;;;;;;8388345;28;20044;-83
2022/08/10 17:57:14;;;;;;;6.45;3.10;;;;;;;;;;8391179;28;20101;-81
2022/08/10 18:01:21;;;;;;;8.90;3.28;;;;;;;;;;8392952;28;20040;-78
2022/08/10 18:05:30;;;;;;;7.93;3.08;;;;;;;;;;8395700;28;20041;-77
2022/08/10 18:09:41;;;;;;;5.88;3.03;;;;;;;;;;8459766;27;20464;-77
2022/08/10 18:13:54;;;;;;;6.18;3.05;;;;;;;;;;8490181;27;20050;-77
2022/08/10 18:18:05;;;;;;;4.32;2.63;;;;;;;;;;8463007;27;20040;-78
2022/08/10 18:22:11;;;;;;;4.28;2.05;;;;;;;;;;8457831;27;20465;-77
2022/08/10 18:26:26;;;;;;;4.18;2.10;;;;;;;;;;8473787;27;20051;-77
2022/08/10 18:31:00;;;;;;;4.03;2.10;;;;;;;;;;8468229;27;20487;-77
2022/08/10 18:35:19;;;;;;;5.25;2.17;;;;;;;;;;8467867;27;20475;-77
2022/08/10 18:39:37;;;;;;;3.47;2.13;;;;;;;;;;8477849;27;20081;-78
2022/08/10 18:43:48;;;;;;;4.18;2.38;;;;;;;;;;8467744;27;20050;-78
2022/08/10 18:48:16;;;;;;;5.60;2.40;;;;;;;;;;8476356;27;20051;-77
2022/08/10 18:52:44;;;;;;;5.57;2.30;;;;;;;;;;8471238;27;20051;-78
2022/08/10 18:57:19;;;;;;;5.75;2.92;;;;;;;;;;8487073;27;20046;-80
2022/08/10 19:01:59;;;;;;;9.63;3.60;;;;;;;;;;8463651;27;20446;-78
2022/08/10 19:06:41;;;;;;;7.28;3.63;;;;;;;;;;8461661;27;20036;-78
2022/08/10 19:16:21;;;;;;;10.38;3.97;;;;;;;;;;8471754;28;20136;-77
2022/08/10 19:20:50;;;;;;;8.75;3.38;;;;;;;;;;8466620;28;20044;-80
2022/08/10 19:25:01;;;;;;;9.55;3.72;;;;;;;;;;8462145;28;20048;-77
2022/08/10 19:29:28;;;;;;;8.07;3.17;;;;;;;;;;8459744;28;20031;-85
2022/08/10 19:33:54;;;;;;;8.07;3.40;;;;;;;;;;8463036;28;20415;-85
2022/08/10 19:38:12;;;;;;;5.57;3.28;;;;;;;;;;8472743;28;20072;-77
2022/08/10 19:42:27;;;;;;;7.22;3.33;;;;;;;;;;8482233;28;20046;-78
2022/08/10 19:46:50;;;;;;;5.03;3.20;;;;;;;;;;8465432;28;20050;-78
2022/08/10 19:50:58;;;;;;;7.93;3.20;;;;;;;;;;8478115;28;20469;-78
2022/08/10 19:55:28;;;;;;;4.40;2.67;;;;;;;;;;8465932;28;20044;-78
2022/08/10 19:59:39;;;;;;;6.05;3.33;;;;;;;;;;8471339;28;20043;-80
2022/08/10 20:03:51;;;;;;;5.22;2.95;;;;;;;;;;8464303;28;20058;-88
2022/08/10 20:08:45;;;;;;;3.78;2.70;;;;;;;;;;8455638;28;20112;-78
2022/08/10 20:13:01;;;;;;;13.80;8.85;;;;;;;;;;8470580;28;20043;-80
2022/08/10 20:17:12;;;;;;;7.20;4.60;;;;;;;;;;8461129;28;20046;-82
2022/08/10 20:21:26;;;;;;;6.45;3.38;;;;;;;;;;8476829;27;20036;-78
2022/08/10 20:25:31;;;;;;;5.10;2.88;;;;;;;;;;8479671;27;20074;-78
2022/08/10 20:29:54;;;;;;;3.53;2.60;;;;;;;;;;8475837;27;20089;-84
2022/08/10 20:34:20;;;;;;;4.45;3.00;;;;;;;;;;8480691;27;20549;-80
2022/08/10 20:38:28;;;;;;;3.75;2.72;;;;;;;;;;8479120;27;20051;-79
2022/08/10 20:42:39;;;;;;;5.00;2.90;;;;;;;;;;8491349;27;20497;-79
2022/08/10 20:46:51;;;;;;;4.78;2.70;;;;;;;;;;8468117;27;20054;-83
2022/08/10 20:50:58;;;;;;;3.75;2.40;;;;;;;;;;8481436;27;20086;-78
2022/08/10 20:55:07;;;;;;;3.22;2.20;;;;;;;;;;8463863;27;20036;-79
2022/08/10 20:59:27;;;;;;;4.45;3.03;;;;;;;;;;8473015;27;20067;-79
2022/08/10 21:03:51;;;;;;;6.57;3.08;;;;;;;;;;8469475;27;20040;-78
2022/08/10 21:08:08;;;;;;;5.15;3.05;;;;;;;;;;8470197;27;20550;-78
2022/08/10 21:13:09;;;;;;;4.72;2.33;;;;;;;;;;8480056;27;20108;-79
2022/08/10 21:17:25;;;;;;;4.30;2.70;;;;;;;;;;8368979;27;20090;-78
2022/08/10 21:21:47;;;;;;;4.75;2.70;;;;;;;;;;8481440;27;20050;-79
2022/08/10 22:58:38;;;;;;;5.57;2.78;;;;;;;;;;8477479;27;20046;-78
2022/08/10 23:02:50;;;;;;;4.30;2.67;;;;;;;;;;8481351;27;20459;-78
2022/08/10 23:06:57;;;;;;;5.40;3.17;;;;;;;;;;8472869;27;20043;-78
2022/08/10 23:11:06;;;;;;;3.60;2.38;;;;;;;;;;8494227;28;20050;-78
2022/08/10 23:19:44;;;;;;;6.78;3.63;;;;;;;;;;8470317;28;20050;-79
2022/08/10 23:23:49;;;;;;;3.60;2.60;;;;;;;;;;8480526;28;20042;-78
2022/08/10 23:28:02;;;;;;;5.70;3.35;;;;;;;;;;8470455;28;20043;-79
2022/08/10 23:32:05;;;;;;;;;;;;;;;;;;8479671;27;20044;-78
2022/08/10 23:36:11;;;;;;;4.80;3.00;;;;;;;;;;8470044;28;20413;-80
2022/08/10 23:40:18;;;;;;;8.00;3.88;;;;;;;;;;8472171;28;20051;-79
2022/08/10 23:44:23;;;;;;;6.05;3.85;;;;;;;;;;8480668;28;20075;-78
2022/08/10 23:48:29;;;;;;;5.40;3.38;;;;;;;;;;8480019;27;20044;-79
2022/08/10 23:52:35;;;;;;;6.93;3.53;;;;;;;;;;8468787;28;20118;-76
2022/08/10 23:56:42;;;;;;;4.72;3.00;;;;;;;;;;8485717;27;20082;-82
